createdAt,value
2023-03-05T00:02:08.077Z,98415.00
2023-03-05T00:05:24.814Z,98419.25
2023-03-05T00:08:41.485Z,98414.30
2023-03-05T00:11:57.640Z,98413.88
2023-03-05T00:15:15.806Z,98408.51
2023-03-05T00:21:48.829Z,98416.21
2023-03-05T00:25:04.881Z,98408.80
2023-03-05T00:28:21.743Z,98411.83
2023-03-05T00:31:40.331Z,98413.17
2023-03-05T00:34:57.376Z,98401.77
2023-03-05T00:38:13.423Z,98400.39
2023-03-05T00:41:29.703Z,98393.64
2023-03-05T00:44:45.793Z,98388.52
2023-03-05T00:48:01.827Z,98390.88
2023-03-05T00:51:18.194Z,98397.35
2023-03-05T00:54:34.261Z,98381.08
2023-03-05T00:57:50.467Z,98379.52
2023-03-05T01:01:09.858Z,98381.30
2023-03-05T01:04:27.896Z,98385.95
2023-03-05T01:07:44.477Z,98388.84
2023-03-05T01:11:00.982Z,98376.20
2023-03-05T01:14:17.373Z,98374.55
2023-03-05T01:20:54.013Z,98380.05
2023-03-05T01:24:10.687Z,98375.08
2023-03-05T01:27:26.682Z,98381.58
2023-03-05T01:30:45.202Z,98377.73
2023-03-05T01:34:03.179Z,98377.48
2023-03-05T01:37:22.542Z,98383.27
2023-03-05T01:40:37.688Z,98382.70
2023-03-05T01:43:55.535Z,98385.03
2023-03-05T01:47:13.984Z,98382.03
2023-03-05T01:50:33.521Z,98375.25
2023-03-05T01:53:50.579Z,98384.58
2023-03-05T01:57:12.386Z,98381.97
2023-03-05T02:00:33.744Z,98379.34
2023-03-05T02:03:50.692Z,98376.17
2023-03-05T02:07:07.318Z,98380.72
2023-03-05T02:10:32.326Z,98380.69
2023-03-05T02:13:48.554Z,98390.18
2023-03-05T02:20:25.270Z,98388.91
2023-03-05T02:23:44.322Z,98389.86
2023-03-05T02:27:00.682Z,98380.77
2023-03-05T02:30:19.652Z,98377.75
2023-03-05T02:33:36.925Z,98369.66
2023-03-05T02:36:53.128Z,98371.89
2023-03-05T02:40:09.576Z,98375.74
2023-03-05T02:43:26.025Z,98373.03
2023-03-05T02:46:42.555Z,98367.48
2023-03-05T02:49:58.948Z,98373.41
2023-03-05T02:53:15.588Z,98362.97
2023-03-05T02:56:31.888Z,98366.71
2023-03-05T02:59:49.442Z,98350.47
2023-03-05T03:06:21.630Z,98362.77
2023-03-05T03:09:39.753Z,98360.05
2023-03-05T03:12:55.895Z,98346.72
2023-03-05T03:19:27.698Z,98352.23
2023-03-05T03:22:43.766Z,98347.54
2023-03-05T03:25:59.896Z,98352.91
2023-03-05T03:29:18.832Z,98349.91
2023-03-05T03:35:50.899Z,98354.56
2023-03-05T03:39:06.994Z,98353.22
2023-03-05T03:42:24.463Z,98348.81
2023-03-05T03:45:40.697Z,98345.77
2023-03-05T03:48:59.243Z,98344.50
2023-03-05T03:52:16.331Z,98339.22
2023-03-05T03:55:32.433Z,98329.95
2023-03-05T03:58:48.363Z,98322.77
2023-03-05T04:02:04.510Z,98312.47
2023-03-05T04:05:21.042Z,98319.52
2023-03-05T04:08:37.030Z,98316.53
2023-03-05T04:11:52.818Z,98311.97
2023-03-05T04:15:09.038Z,98316.61
2023-03-05T04:18:25.201Z,98318.51
2023-03-05T04:21:41.508Z,98302.17
2023-03-05T04:24:57.879Z,98306.17
2023-03-05T04:28:14.224Z,98295.98
2023-03-05T04:31:30.266Z,98298.59
2023-03-05T04:34:46.628Z,98291.03
2023-03-05T04:38:02.651Z,98288.42
2023-03-05T04:41:18.883Z,98290.76
2023-03-05T04:44:34.821Z,98279.75
2023-03-05T04:51:06.572Z,98288.22
2023-03-05T04:54:23.181Z,98285.95
2023-03-05T04:57:39.225Z,98283.27
2023-03-05T05:00:55.241Z,98286.12
2023-03-05T05:04:11.381Z,98291.84
2023-03-05T05:07:27.442Z,98281.98
2023-03-05T05:10:43.680Z,98276.64
2023-03-05T05:13:59.917Z,98268.38
2023-03-05T05:17:17.399Z,98269.96
2023-03-05T05:20:33.784Z,98269.86
2023-03-05T05:23:50.214Z,98264.88
2023-03-05T05:27:06.615Z,98253.56
2023-03-05T05:30:23.530Z,98254.38
2023-03-05T05:33:39.590Z,98255.73
2023-03-05T05:36:55.588Z,98247.91
2023-03-05T05:40:13.352Z,98257.62
2023-03-05T05:43:29.603Z,98254.30
2023-03-05T05:46:45.724Z,98248.41
2023-03-05T05:50:02.101Z,98245.22
2023-03-05T05:53:18.236Z,98245.40
2023-03-05T05:56:34.783Z,98259.86
2023-03-05T05:59:51.486Z,98263.78
2023-03-05T06:03:08.656Z,98263.80
2023-03-05T06:06:27.859Z,98272.06
2023-03-05T06:09:44.895Z,98277.86
2023-03-05T06:13:00.918Z,98280.39
2023-03-05T06:16:22.879Z,98280.59
2023-03-05T06:20:37.326Z,98286.39
2023-03-05T06:23:54.913Z,98280.22
2023-03-05T06:27:11.488Z,98284.53
2023-03-05T06:30:28.096Z,98291.34
2023-03-05T06:33:45.430Z,98286.11
2023-03-05T06:37:01.688Z,98271.38
2023-03-05T06:40:21.187Z,98270.53
2023-03-05T06:43:36.083Z,98277.92
2023-03-05T06:46:51.889Z,98265.45
2023-03-05T06:50:07.900Z,98254.07
2023-03-05T06:53:23.976Z,98258.28
2023-03-05T06:56:42.871Z,98256.31
2023-03-05T06:59:59.106Z,98262.07
2023-03-05T07:03:15.253Z,98258.78
2023-03-05T07:06:32.788Z,98258.52
2023-03-05T07:09:50.686Z,98258.58
2023-03-05T07:13:06.802Z,98256.75
2023-03-05T07:16:27.675Z,98247.95
2023-03-05T07:19:46.300Z,98244.66
2023-03-05T07:23:02.341Z,98249.00
2023-03-05T07:26:20.340Z,98244.73
2023-03-05T07:29:37.362Z,98241.78
2023-03-05T07:32:53.879Z,98237.86
2023-03-05T07:36:10.629Z,98239.75
2023-03-05T07:39:27.346Z,98234.81
2023-03-05T07:42:43.496Z,98238.23
2023-03-05T07:46:01.491Z,98239.63
2023-03-05T07:49:18.123Z,98232.13
2023-03-05T07:52:34.692Z,98223.94
2023-03-05T07:55:54.558Z,98227.66
2023-03-05T07:59:13.911Z,98224.48
2023-03-05T08:02:30.594Z,98223.53
2023-03-05T08:05:48.798Z,98215.63
2023-03-05T08:09:05.547Z,98212.86
2023-03-05T08:12:23.872Z,98202.29
2023-03-05T08:15:42.284Z,98203.67
2023-03-05T08:19:01.752Z,98197.41
2023-03-05T08:22:18.284Z,98191.39
2023-03-05T08:25:35.998Z,98187.93
2023-03-05T08:28:52.882Z,98190.86
2023-03-05T08:38:42.781Z,98184.49
2023-03-05T08:42:00.740Z,98186.04
2023-03-05T08:45:22.748Z,98185.51
2023-03-05T08:48:40.431Z,98183.45
2023-03-05T08:51:59.227Z,98173.58
2023-03-05T08:55:17.493Z,98184.16
2023-03-05T08:58:33.989Z,98182.39
2023-03-05T09:06:43.241Z,98177.59
2023-03-05T09:09:59.734Z,98176.92
2023-03-05T09:13:16.393Z,98172.10
2023-03-05T09:16:32.929Z,98169.34
2023-03-05T09:19:49.403Z,98178.13
2023-03-05T09:23:05.639Z,98163.95
2023-03-05T09:26:24.453Z,98175.77
2023-03-05T09:29:42.859Z,98171.48
2023-03-05T09:36:25.497Z,98160.88
2023-03-05T09:39:42.264Z,98148.32
2023-03-05T09:43:14.358Z,98158.73
2023-03-05T09:46:44.710Z,98157.52
2023-03-05T09:50:07.605Z,98140.63
2023-03-05T09:53:34.834Z,98137.44
2023-03-05T09:56:56.920Z,98135.09
2023-03-05T10:00:23.150Z,98129.98
2023-03-05T10:07:01.841Z,98125.48
2023-03-05T10:10:26.247Z,98128.75
2023-03-05T10:13:46.280Z,98120.36
2023-03-05T10:18:17.665Z,98116.09
2023-03-05T10:21:40.357Z,98121.50
2023-03-05T10:25:23.629Z,98112.69
2023-03-05T10:29:01.531Z,98115.02
2023-03-05T10:38:42.582Z,98103.81
2023-03-05T10:42:07.440Z,98105.84
2023-03-05T10:45:28.466Z,98096.09
2023-03-05T10:48:50.588Z,98087.22
2023-03-05T10:52:11.593Z,98099.56
2023-03-05T10:55:31.464Z,98090.13
2023-03-05T10:58:48.116Z,98081.81
2023-03-05T11:07:44.487Z,98074.92
2023-03-05T11:11:22.078Z,98063.92
2023-03-05T11:14:39.517Z,98071.33
2023-03-05T11:21:28.345Z,98067.15
2023-03-05T11:24:46.522Z,98066.09
2023-03-05T11:28:05.992Z,98066.15
2023-03-05T11:31:33.789Z,98059.47
2023-03-05T11:35:03.310Z,98058.13
2023-03-05T11:38:29.305Z,98052.56
2023-03-05T11:41:50.121Z,98049.41
2023-03-05T11:45:08.255Z,98053.95
2023-03-05T11:48:30.285Z,98041.07
2023-03-05T11:51:54.351Z,98038.06
2023-03-05T11:55:16.540Z,98037.38
2023-03-05T11:58:47.886Z,98038.50
2023-03-05T12:02:05.529Z,98042.14
2023-03-05T12:05:26.517Z,98046.25
2023-03-05T12:08:48.462Z,98035.73
2023-03-05T12:12:12.569Z,98038.98
2023-03-05T12:16:08.379Z,98023.84
2023-03-05T12:19:45.191Z,98026.55
2023-03-05T12:23:08.024Z,98026.86
2023-03-05T12:26:25.469Z,98029.58
2023-03-05T12:29:49.898Z,98025.88
2023-03-05T12:33:08.189Z,98027.41
2023-03-05T12:36:47.000Z,98023.14
2023-03-05T12:40:25.549Z,98019.14
2023-03-05T12:43:43.898Z,98013.91
2023-03-05T12:47:27.987Z,98009.92
2023-03-05T12:50:59.251Z,98004.83
2023-03-05T12:54:42.029Z,98000.26
2023-03-05T12:58:04.875Z,98001.72
2023-03-05T13:01:38.322Z,97997.19
2023-03-05T13:04:58.887Z,98000.88
2023-03-05T13:08:27.477Z,98001.27
2023-03-05T13:11:48.120Z,97995.92
2023-03-05T13:15:22.856Z,98005.80
2023-03-05T13:18:40.730Z,98009.11
2023-03-05T13:22:07.625Z,98008.27
2023-03-05T13:25:26.263Z,98000.88
2023-03-05T13:28:43.360Z,98001.84
2023-03-05T13:32:06.309Z,97998.84
2023-03-05T13:35:23.723Z,97999.59
2023-03-05T13:38:44.837Z,97989.44
2023-03-05T13:42:15.718Z,97996.44
2023-03-05T13:45:35.945Z,97988.60
2023-03-05T13:49:06.456Z,97992.98
2023-03-05T13:52:34.249Z,97992.44
2023-03-05T13:55:50.841Z,97978.84
2023-03-05T13:59:07.743Z,97976.38
2023-03-05T14:02:27.754Z,97974.45
2023-03-05T14:05:45.774Z,97968.89
2023-03-05T14:09:13.562Z,97978.11
2023-03-05T14:12:39.299Z,97966.78
2023-03-05T14:16:12.076Z,97970.62
2023-03-05T14:19:44.896Z,97966.30
2023-03-05T14:23:04.488Z,97963.00
2023-03-05T14:26:36.517Z,97961.45
2023-03-05T14:29:56.139Z,97956.13
2023-03-05T14:33:13.882Z,97956.17
2023-03-05T14:36:34.876Z,97959.70
2023-03-05T14:39:57.202Z,97957.36
2023-03-05T14:43:16.742Z,97958.86
2023-03-05T14:46:30.833Z,97942.79
2023-03-05T14:49:46.974Z,97945.63
2023-03-05T14:53:08.624Z,97954.91
2023-03-05T14:56:31.559Z,97949.36
2023-03-05T14:59:47.660Z,97966.17
2023-03-05T15:03:06.132Z,97956.02
2023-03-05T15:06:30.662Z,97959.55
2023-03-05T15:09:50.556Z,97956.93
2023-03-05T15:13:07.075Z,97948.92
2023-03-05T15:16:26.427Z,97950.20
2023-03-05T15:19:43.499Z,97951.55
2023-03-05T15:23:01.567Z,97942.05
2023-03-05T15:26:20.369Z,97942.79
2023-03-05T15:29:36.812Z,97949.30
2023-03-05T15:32:52.869Z,97943.53
2023-03-05T15:36:12.176Z,97948.33
2023-03-05T15:39:30.293Z,97948.17
2023-03-05T15:42:46.902Z,97948.98
2023-03-05T15:46:05.196Z,97947.74
2023-03-05T15:49:25.249Z,97932.17
2023-03-05T15:52:45.000Z,97939.59
2023-03-05T15:56:01.607Z,97935.69
2023-03-05T15:59:18.230Z,97936.69
2023-03-05T16:02:34.782Z,97936.53
2023-03-05T16:05:51.302Z,97937.94
2023-03-05T16:09:10.476Z,97938.52
2023-03-05T16:12:31.839Z,97938.24
2023-03-05T16:15:51.368Z,97934.94
2023-03-05T16:19:09.425Z,97936.16
2023-03-05T16:22:25.899Z,97938.98
2023-03-05T16:25:42.554Z,97934.94
2023-03-05T16:28:58.735Z,97935.38
2023-03-05T16:32:18.612Z,97944.88
2023-03-05T16:35:35.131Z,97933.34
2023-03-05T16:38:56.093Z,97940.61
2023-03-05T16:42:13.889Z,97941.73
2023-03-05T16:45:32.916Z,97944.59
2023-03-05T16:48:51.654Z,97948.45
2023-03-05T16:52:18.399Z,97946.09
2023-03-05T16:55:27.368Z,97933.30
2023-03-05T16:58:45.810Z,97943.91
2023-03-05T17:02:02.520Z,97947.87
2023-03-05T17:05:20.149Z,97947.34
2023-03-05T17:08:36.426Z,97956.98
2023-03-05T17:11:52.570Z,97948.61
2023-03-05T17:15:09.903Z,97949.34
2023-03-05T17:18:27.025Z,97945.18
2023-03-05T17:21:43.332Z,97952.50
2023-03-05T17:25:02.438Z,97955.77
2023-03-05T17:28:21.155Z,97952.19
2023-03-05T17:31:38.090Z,97958.16
2023-03-05T17:34:54.260Z,97962.80
2023-03-05T17:38:13.758Z,97970.50
2023-03-05T17:41:30.716Z,97968.62
2023-03-05T17:48:04.398Z,97969.92
2023-03-05T17:51:23.748Z,97965.66
2023-03-05T17:54:41.827Z,97968.05
2023-03-05T17:57:58.302Z,97977.00
2023-03-05T18:01:15.604Z,97970.42
2023-03-05T18:04:34.843Z,97972.80
2023-03-05T18:07:52.063Z,97970.73
2023-03-05T18:11:10.628Z,97970.03
2023-03-05T18:14:27.589Z,97970.80
2023-03-05T18:17:45.942Z,97967.94
2023-03-05T18:21:02.952Z,97972.30
2023-03-05T18:24:19.953Z,97979.34
2023-03-05T18:27:36.472Z,97967.13
2023-03-05T18:30:55.583Z,97968.19
2023-03-05T18:34:11.981Z,97963.81
2023-03-05T18:37:33.480Z,97973.02
2023-03-05T18:40:52.076Z,97975.63
2023-03-05T18:44:09.974Z,97975.63
2023-03-05T18:47:28.472Z,97976.89
2023-03-05T18:50:45.372Z,97970.97
2023-03-05T18:54:05.266Z,97964.39
2023-03-05T18:57:22.732Z,97976.90
2023-03-05T19:00:42.371Z,97972.53
2023-03-05T19:04:00.178Z,97963.85
2023-03-05T19:07:16.932Z,97967.86
2023-03-05T19:10:36.936Z,97959.33
2023-03-05T19:13:57.461Z,97968.13
2023-03-05T19:17:15.088Z,97960.99
2023-03-05T19:20:31.633Z,97958.23
2023-03-05T19:23:50.286Z,97952.61
2023-03-05T19:27:09.266Z,97964.97
2023-03-05T19:30:28.400Z,97960.84
2023-03-05T19:33:44.650Z,97963.20
2023-03-05T19:37:01.938Z,97959.89
2023-03-05T19:40:21.142Z,97964.97
2023-03-05T19:43:40.931Z,97966.77
2023-03-05T19:47:04.923Z,97967.05
2023-03-05T19:50:26.614Z,97961.28
2023-03-05T19:53:43.622Z,97970.48
2023-03-05T19:57:02.990Z,97967.87
2023-03-05T20:00:25.663Z,97967.86
2023-03-05T20:03:43.717Z,97971.03
2023-03-05T20:07:00.351Z,97961.80
2023-03-05T20:10:20.079Z,97966.62
2023-03-05T20:13:34.915Z,97970.19
2023-03-05T20:16:51.687Z,97965.92
2023-03-05T20:20:08.582Z,97962.50
2023-03-05T20:23:26.012Z,97964.70
2023-03-05T20:26:44.580Z,97957.68
2023-03-05T20:30:02.058Z,97938.45
2023-03-05T20:33:18.714Z,97947.39
2023-03-05T20:36:36.327Z,97939.16
2023-03-05T20:39:53.792Z,97942.47
2023-03-05T20:43:10.354Z,97938.47
2023-03-05T20:46:30.247Z,97939.30
2023-03-05T20:49:46.752Z,97947.13
2023-03-05T20:53:06.028Z,97946.16
2023-03-05T20:56:22.765Z,97931.31
2023-03-05T20:59:39.057Z,97932.42
2023-03-05T21:02:57.205Z,97933.53
2023-03-05T21:06:14.451Z,97939.04
2023-03-05T21:09:30.641Z,97934.63
2023-03-05T21:12:46.981Z,97935.85
2023-03-05T21:16:17.772Z,97934.34
2023-03-05T21:19:37.461Z,97930.52
2023-03-05T21:22:51.419Z,97931.61
2023-03-05T21:26:08.850Z,97928.71
2023-03-05T21:29:25.654Z,97924.45
2023-03-05T21:32:42.380Z,97918.95
2023-03-05T21:36:00.723Z,97920.88
2023-03-05T21:39:16.999Z,97920.57
2023-03-05T21:42:33.778Z,97914.83
2023-03-05T21:45:53.307Z,97916.20
2023-03-05T21:49:07.116Z,97907.42
2023-03-05T21:52:23.393Z,97905.36
2023-03-05T21:56:21.197Z,97899.70
2023-03-05T21:59:37.804Z,97894.06
2023-03-05T22:02:53.893Z,97899.42
2023-03-05T22:06:12.625Z,97896.81
2023-03-05T22:09:29.207Z,97895.47
2023-03-05T22:13:18.492Z,97895.58
2023-03-05T22:16:36.337Z,97895.30
2023-03-05T22:19:52.539Z,97895.05
2023-03-05T22:23:08.775Z,97892.72
2023-03-05T22:26:25.531Z,97888.06
2023-03-05T22:29:41.690Z,97888.19
2023-03-05T22:32:57.734Z,97883.76
2023-03-05T22:36:21.106Z,97880.50
2023-03-05T22:39:37.306Z,97888.31
2023-03-05T22:42:54.012Z,97879.69
2023-03-05T22:46:19.771Z,97887.88
2023-03-05T22:49:36.167Z,97872.50
2023-03-05T22:52:52.316Z,97882.78
2023-03-05T22:56:12.887Z,97882.67
2023-03-05T22:59:29.042Z,97871.02
2023-03-05T23:02:45.748Z,97875.69
2023-03-05T23:06:01.912Z,97870.59
2023-03-05T23:09:18.061Z,97863.73
2023-03-05T23:12:37.342Z,97857.98
2023-03-05T23:15:53.399Z,97860.08
2023-03-05T23:19:09.578Z,97857.18
2023-03-05T23:22:26.124Z,97859.66
2023-03-05T23:25:44.385Z,97860.61
2023-03-05T23:29:03.303Z,97858.96
2023-03-05T23:32:20.771Z,97863.22
2023-03-05T23:35:40.010Z,97858.14
2023-03-05T23:38:58.647Z,97848.67
2023-03-05T23:42:15.668Z,97850.60
2023-03-05T23:45:33.107Z,97857.72
2023-03-05T23:48:49.358Z,97855.52
2023-03-05T23:52:05.497Z,97854.27
2023-03-05T23:55:26.793Z,97856.16
2023-03-05T23:58:45.064Z,97849.75
